KCRE/CRE METAR and TAF weather

Enter ICAO airport designator
Station Type Date Time Source
KCRE METAR 2019/02/23 16:53 UTC NOAA

KCRE 231653Z 34006KT 10SM OVC005 10/08 A3024 RMK AO1 SLP240 T01000083


Station Type Date Time Source
KCRE Decoded METAR 2019/02/23 16:53 UTC NOAA

N. MYRTLE BCH.GRAND STRAND, SC, United States (KCRE) 33-49N 078-43W 10M
Feb 23, 2019 - 11:53 AM EST / 2019.02.23 1653 UTC
Wind: from the NNW (340 degrees) at 7 MPH (6 KT):0
Visibility: 10 mile(s):0
Sky conditions: overcast
Temperature: 50.0 F (10.0 C)
Dew Point: 46.9 F (8.3 C)
Relative Humidity: 89%
Pressure (altimeter): 30.24 in. Hg (1024 hPa)
ob: KCRE 231653Z 34006KT 10SM OVC005 10/08 A3024 RMK AO1 SLP240 T01000083
cycle: 17

Station Type Date Time Source
KCRE TAF 2019/02/23 18:33 UTC NOAA

TAF KCRE 231730Z 2318/2418 05005KT P6SM OVC009
FM240000 VRB03KT P6SM OVC009
FM240600 18007KT 2SM BR OVC004
FM241200 21013G20KT 3SM BR OVC004
FM241500 22014G22KT P6SM OVC020


Example: see airport list